createdAt,value
2018-02-24T00:01:53.152Z,26.05
2018-02-24T00:04:20.832Z,21.42
2018-02-24T00:06:48.546Z,28.00
2018-02-24T00:09:16.237Z,45.75
2018-02-24T00:11:43.951Z,22.40
2018-02-24T00:14:11.639Z,52.33
2018-02-24T00:16:39.325Z,28.75
2018-02-24T00:19:07.034Z,17.30
2018-02-24T00:21:34.827Z,18.55
2018-02-24T00:24:02.539Z,16.90
2018-02-24T00:26:30.834Z,22.80
2018-02-24T00:28:58.559Z,18.58
2018-02-24T00:31:26.250Z,42.95
2018-02-24T00:33:54.267Z,24.33
2018-02-24T00:36:21.941Z,32.10
2018-02-24T00:38:49.615Z,25.45
2018-02-24T00:41:17.322Z,19.08
2018-02-24T00:43:45.017Z,55.28
2018-02-24T00:46:12.724Z,22.35
2018-02-24T00:48:40.427Z,21.87
2018-02-24T00:51:08.311Z,18.77
2018-02-24T00:53:36.007Z,22.30
2018-02-24T00:56:03.686Z,33.55
2018-02-24T00:58:31.402Z,34.30
2018-02-24T01:00:59.090Z,39.90
2018-02-24T01:03:26.793Z,22.77
2018-02-24T01:05:54.495Z,36.47
2018-02-24T01:08:22.572Z,40.10
2018-02-24T01:10:50.265Z,61.37
2018-02-24T01:13:17.953Z,37.42
2018-02-24T01:15:45.662Z,22.10
2018-02-24T01:18:13.352Z,33.20
2018-02-24T01:20:41.054Z,32.38
2018-02-24T01:23:08.746Z,39.47
2018-02-24T01:25:36.716Z,20.05
2018-02-24T01:28:04.436Z,25.23
2018-02-24T01:30:32.110Z,20.40
2018-02-24T01:32:59.819Z,29.87
2018-02-24T01:35:27.521Z,21.90
2018-02-24T01:37:55.228Z,19.75
2018-02-24T01:40:22.912Z,65.00
2018-02-24T01:42:50.652Z,44.83
2018-02-24T01:45:18.331Z,16.77
2018-02-24T01:47:46.009Z,19.60
2018-02-24T01:50:13.712Z,17.00
2018-02-24T01:52:41.397Z,41.97
2018-02-24T01:55:09.089Z,18.45
2018-02-24T01:57:36.772Z,16.75
2018-02-24T02:00:04.694Z,19.83
2018-02-24T02:02:32.360Z,18.55
2018-02-24T02:05:00.036Z,32.42
2018-02-24T02:07:27.739Z,17.20
2018-02-24T02:09:55.446Z,27.52
2018-02-24T02:12:23.155Z,20.70
2018-02-24T02:14:50.838Z,52.80
2018-02-24T02:17:18.551Z,37.38
2018-02-24T02:19:46.229Z,33.17
2018-02-24T02:22:13.898Z,18.90
2018-02-24T02:24:41.594Z,21.00
2018-02-24T02:27:09.276Z,15.65
2018-02-24T02:29:36.992Z,15.75
2018-02-24T02:32:04.666Z,17.62
2018-02-24T02:34:32.365Z,32.55
2018-02-24T02:37:00.064Z,23.83
2018-02-24T02:39:27.751Z,20.37
2018-02-24T02:41:55.475Z,19.55
2018-02-24T02:44:23.145Z,27.13
2018-02-24T02:46:50.816Z,28.05
2018-02-24T02:49:18.523Z,103.93
2018-02-24T02:51:46.218Z,70.00
2018-02-24T02:54:13.922Z,18.02
2018-02-24T02:56:41.596Z,21.73
2018-02-24T02:59:09.349Z,45.58
2018-02-24T03:01:37.022Z,38.15
2018-02-24T03:04:04.700Z,34.33
2018-02-24T03:06:32.399Z,17.67
2018-02-24T03:09:00.094Z,28.75
2018-02-24T03:11:27.793Z,22.70
2018-02-24T03:13:55.467Z,15.73
2018-02-24T03:16:23.452Z,37.35
2018-02-24T03:18:51.136Z,20.62
2018-02-24T03:21:18.831Z,32.90
2018-02-24T03:23:46.531Z,22.52
2018-02-24T03:26:14.207Z,16.92
2018-02-24T03:28:41.911Z,109.90
2018-02-24T03:31:09.596Z,42.75
2018-02-24T03:33:37.593Z,21.77
2018-02-24T03:36:05.287Z,23.75
2018-02-24T03:38:33.020Z,21.12
2018-02-24T03:41:00.725Z,17.50
2018-02-24T03:43:28.466Z,14.80
2018-02-24T03:48:55.689Z,16.40
2018-02-24T03:51:23.482Z,15.50
2018-02-24T03:53:51.168Z,15.75
2018-02-24T03:56:18.870Z,16.20
2018-02-24T03:58:46.612Z,14.82
2018-02-24T04:01:14.287Z,15.95
2018-02-24T04:03:42.017Z,14.25
2018-02-24T04:06:09.721Z,17.87
2018-02-24T04:08:37.407Z,17.70
2018-02-24T04:11:05.116Z,14.85
2018-02-24T04:13:32.799Z,15.88
2018-02-24T04:16:00.502Z,15.75
2018-02-24T04:18:28.172Z,16.62
2018-02-24T04:20:55.906Z,13.95
2018-02-24T04:23:23.601Z,14.75
2018-02-24T04:25:51.285Z,15.50
2018-02-24T04:28:18.983Z,14.30
2018-02-24T04:30:46.689Z,17.62
2018-02-24T04:33:14.575Z,14.98
2018-02-24T04:35:42.272Z,13.52
2018-02-24T04:38:10.202Z,14.50
2018-02-24T04:40:37.887Z,13.48
2018-02-24T04:43:05.611Z,15.18
2018-02-24T04:45:33.322Z,15.32
2018-02-24T04:48:01.004Z,14.57
2018-02-24T04:50:28.722Z,13.07
2018-02-24T04:52:56.400Z,16.20
2018-02-24T04:55:24.089Z,15.43
2018-02-24T04:57:51.800Z,13.55
2018-02-24T05:00:19.479Z,16.40
2018-02-24T05:02:47.184Z,15.02
2018-02-24T05:05:14.858Z,15.30
2018-02-24T05:07:42.698Z,15.55
2018-02-24T05:10:10.371Z,14.93
2018-02-24T05:12:38.044Z,14.98
2018-02-24T05:15:05.921Z,14.50
2018-02-24T05:17:33.599Z,14.82
2018-02-24T05:20:01.296Z,16.05
2018-02-24T05:22:28.968Z,16.48
2018-02-24T05:24:56.809Z,14.73
2018-02-24T05:27:24.491Z,13.60
2018-02-24T05:29:52.171Z,16.58
2018-02-24T05:32:19.875Z,14.57
2018-02-24T05:34:47.552Z,16.00
2018-02-24T05:37:15.255Z,16.48
2018-02-24T05:39:42.935Z,15.65
2018-02-24T05:42:10.650Z,15.20
2018-02-24T05:44:38.361Z,15.18
2018-02-24T05:47:06.042Z,16.65
2018-02-24T05:49:33.767Z,13.38
2018-02-24T05:52:01.456Z,14.10
2018-02-24T05:54:29.133Z,14.50
2018-02-24T05:56:57.111Z,13.68
2018-02-24T05:59:24.784Z,14.73
2018-02-24T06:01:52.493Z,14.40
2018-02-24T06:04:20.172Z,14.32
2018-02-24T06:06:47.900Z,15.35
2018-02-24T06:09:15.573Z,15.07
2018-02-24T06:11:43.256Z,15.50
2018-02-24T06:14:10.977Z,15.00
2018-02-24T06:16:38.665Z,14.10
2018-02-24T06:19:06.355Z,13.32
2018-02-24T06:21:34.045Z,15.48
2018-02-24T06:24:01.837Z,16.40
2018-02-24T06:26:29.528Z,17.83
2018-02-24T06:28:57.206Z,18.27
2018-02-24T06:31:24.909Z,16.05
2018-02-24T06:33:53.224Z,15.57
2018-02-24T06:36:20.944Z,15.68
2018-02-24T06:38:48.632Z,15.75
2018-02-24T06:41:16.368Z,15.23
2018-02-24T06:43:44.056Z,15.27
2018-02-24T06:46:11.729Z,14.85
2018-02-24T06:48:39.453Z,16.85
2018-02-24T06:51:07.162Z,15.65
2018-02-24T06:53:34.865Z,17.75
2018-02-24T06:56:02.556Z,16.27
2018-02-24T06:58:30.282Z,17.15
2018-02-24T07:00:57.961Z,15.38
2018-02-24T07:03:25.642Z,14.40
2018-02-24T07:05:53.343Z,17.52
2018-02-24T07:08:21.016Z,15.30
2018-02-24T07:10:48.719Z,17.60
2018-02-24T07:13:16.404Z,14.87
2018-02-24T07:15:44.113Z,17.02
2018-02-24T07:18:11.795Z,15.88
2018-02-24T07:20:39.800Z,16.48
2018-02-24T07:23:07.488Z,17.27
2018-02-24T07:25:35.163Z,15.85
2018-02-24T07:28:03.256Z,16.95
2018-02-24T07:30:30.960Z,15.00
2018-02-24T07:32:58.657Z,17.20
2018-02-24T07:35:26.327Z,16.95
2018-02-24T07:37:54.269Z,15.48
2018-02-24T07:40:21.950Z,16.30
2018-02-24T07:42:49.686Z,17.12
2018-02-24T07:45:17.385Z,15.35
2018-02-24T07:47:45.066Z,15.18
2018-02-24T07:50:12.760Z,16.05
2018-02-24T07:52:40.445Z,15.73
2018-02-24T07:55:08.402Z,17.92
2018-02-24T07:57:36.074Z,16.37
2018-02-24T08:00:03.769Z,15.90
2018-02-24T08:02:31.471Z,16.10
2018-02-24T08:04:59.151Z,14.50
2018-02-24T08:07:27.542Z,16.92
2018-02-24T08:09:55.216Z,16.55
2018-02-24T08:12:23.031Z,16.08
2018-02-24T08:14:50.714Z,17.17
2018-02-24T08:17:18.433Z,16.73
2018-02-24T08:19:46.129Z,14.90
2018-02-24T08:22:13.805Z,13.38
2018-02-24T08:24:41.513Z,16.02
2018-02-24T08:27:09.187Z,13.88
2018-02-24T08:29:37.102Z,15.80
2018-02-24T08:32:04.794Z,15.93
2018-02-24T08:34:32.496Z,15.18
2018-02-24T08:37:00.200Z,15.15
2018-02-24T08:39:27.885Z,13.95
2018-02-24T08:41:55.584Z,14.00
2018-02-24T08:44:23.262Z,15.43
2018-02-24T08:46:51.355Z,13.88
2018-02-24T08:49:19.041Z,14.10
2018-02-24T08:51:46.716Z,12.70
2018-02-24T08:54:14.407Z,14.35
2018-02-24T08:56:42.093Z,13.73
2018-02-24T08:59:10.013Z,12.32
2018-02-24T09:01:37.680Z,12.32
2018-02-24T09:04:05.707Z,13.45
2018-02-24T09:06:33.390Z,13.50
2018-02-24T09:09:01.069Z,12.68
2018-02-24T09:11:28.762Z,13.55
2018-02-24T09:13:56.439Z,12.88
2018-02-24T09:16:24.121Z,12.32
2018-02-24T09:18:51.809Z,12.40
2018-02-24T09:21:19.531Z,12.80
2018-02-24T09:23:47.195Z,14.73
2018-02-24T09:26:14.936Z,11.32
2018-02-24T09:28:42.709Z,11.68
2018-02-24T09:31:10.380Z,13.40
2018-02-24T09:33:38.066Z,11.93
2018-02-24T09:36:05.742Z,12.02
2018-02-24T09:38:33.451Z,11.73
2018-02-24T09:41:01.125Z,11.30
2018-02-24T09:43:28.855Z,10.60
2018-02-24T09:45:56.559Z,11.20
2018-02-24T09:48:24.236Z,9.68
2018-02-24T09:50:51.921Z,9.02
2018-02-24T09:53:19.597Z,9.25
2018-02-24T09:55:47.292Z,8.50
2018-02-24T09:58:14.957Z,8.13
2018-02-24T10:00:42.871Z,8.88
2018-02-24T10:03:10.690Z,8.98
2018-02-24T10:05:38.360Z,7.68
2018-02-24T10:08:06.044Z,7.70
2018-02-24T10:10:33.716Z,7.32
2018-02-24T10:13:01.409Z,8.23
2018-02-24T10:15:29.079Z,9.25
2018-02-24T10:17:57.120Z,12.02
2018-02-24T10:20:24.803Z,6.50
2018-02-24T10:22:52.473Z,6.32
2018-02-24T10:25:20.179Z,12.27
2018-02-24T10:27:47.847Z,6.43
2018-02-24T10:30:15.542Z,6.45
2018-02-24T10:32:43.203Z,6.28
2018-02-24T10:35:10.950Z,6.72
2018-02-24T10:37:38.761Z,6.00
2018-02-24T10:40:06.436Z,6.32
2018-02-24T10:42:34.129Z,7.20
2018-02-24T10:45:01.812Z,7.22
2018-02-24T10:47:29.517Z,6.57
2018-02-24T10:49:57.176Z,6.00
2018-02-24T10:52:25.098Z,6.18
2018-02-24T10:54:52.800Z,6.45
2018-02-24T10:57:20.686Z,6.60
2018-02-24T10:59:48.386Z,5.85
2018-02-24T11:02:16.074Z,7.28
2018-02-24T11:04:43.769Z,5.97
2018-02-24T11:07:11.440Z,5.70
2018-02-24T11:09:39.358Z,6.43
2018-02-24T11:12:07.025Z,5.72
2018-02-24T11:14:34.708Z,5.75
2018-02-24T11:17:02.404Z,6.05
2018-02-24T11:19:30.088Z,5.22
2018-02-24T11:21:57.991Z,5.18
2018-02-24T11:24:25.657Z,5.30
2018-02-24T11:26:54.032Z,5.93
2018-02-24T11:29:22.054Z,6.18
2018-02-24T11:31:49.827Z,6.22
2018-02-24T11:34:17.508Z,5.55
2018-02-24T11:36:45.185Z,6.28
2018-02-24T11:39:13.201Z,5.28
2018-02-24T11:41:40.867Z,5.93
2018-02-24T11:44:08.572Z,5.07
2018-02-24T11:46:36.328Z,6.05
2018-02-24T11:49:03.970Z,6.43
2018-02-24T11:51:31.664Z,5.50
2018-02-24T11:53:59.333Z,5.90
2018-02-24T11:56:27.489Z,5.87
2018-02-24T11:58:55.216Z,7.40
2018-02-24T12:01:22.889Z,6.40
2018-02-24T12:03:50.578Z,6.57
2018-02-24T12:06:18.252Z,6.30
2018-02-24T12:08:45.941Z,6.25
2018-02-24T12:11:13.616Z,7.72
2018-02-24T12:13:41.334Z,7.45
2018-02-24T12:16:09.028Z,6.93
2018-02-24T12:18:36.706Z,6.43
2018-02-24T12:21:04.410Z,6.78
2018-02-24T12:23:32.181Z,6.40
2018-02-24T12:25:59.877Z,6.37
2018-02-24T12:28:27.544Z,6.22
2018-02-24T12:30:55.524Z,6.85
2018-02-24T12:33:23.248Z,6.05
2018-02-24T12:35:50.913Z,5.70
2018-02-24T12:38:18.643Z,6.55
2018-02-24T12:40:46.235Z,5.60
2018-02-24T12:43:13.924Z,5.50
2018-02-24T12:45:41.516Z,6.07
2018-02-24T12:48:09.361Z,4.80
2018-02-24T12:50:36.954Z,4.53
2018-02-24T12:53:04.557Z,4.20
2018-02-24T12:55:32.172Z,4.30
2018-02-24T12:57:59.770Z,4.17
2018-02-24T13:00:27.411Z,3.57
2018-02-24T13:02:55.007Z,4.17
2018-02-24T13:05:22.628Z,4.10
2018-02-24T13:07:50.227Z,4.07
2018-02-24T13:10:17.878Z,3.53
2018-02-24T13:12:45.516Z,3.97
2018-02-24T13:15:13.123Z,4.23
2018-02-24T13:17:40.751Z,5.10
2018-02-24T13:20:08.361Z,3.40
2018-02-24T13:22:36.001Z,4.20
2018-02-24T13:25:03.587Z,3.37
2018-02-24T13:27:31.209Z,5.10
2018-02-24T13:29:58.848Z,4.30
2018-02-24T13:32:26.439Z,3.30
2018-02-24T13:34:54.058Z,3.40
2018-02-24T13:37:21.657Z,4.30
2018-02-24T13:39:49.292Z,4.00
2018-02-24T13:42:16.883Z,3.80
2018-02-24T13:44:44.483Z,3.50
2018-02-24T13:47:12.117Z,3.77
2018-02-24T13:49:39.722Z,4.70
2018-02-24T13:52:07.344Z,4.10
2018-02-24T13:54:34.942Z,5.10
2018-02-24T13:57:02.734Z,4.93
2018-02-24T13:59:30.362Z,3.80
2018-02-24T14:01:57.949Z,3.80
2018-02-24T14:04:25.575Z,4.00
2018-02-24T14:06:53.161Z,5.10
2018-02-24T14:09:20.772Z,3.97
2018-02-24T14:11:48.365Z,3.50
2018-02-24T14:14:16.004Z,3.60
2018-02-24T14:16:43.587Z,4.33
2018-02-24T14:19:11.212Z,4.40
2018-02-24T14:21:38.823Z,3.60
2018-02-24T14:24:06.418Z,3.63
2018-02-24T14:26:34.029Z,4.43
2018-02-24T14:29:01.616Z,3.90
2018-02-24T14:31:29.270Z,4.70
2018-02-24T14:33:56.857Z,5.37
2018-02-24T14:36:24.455Z,4.80
2018-02-24T14:38:52.073Z,4.63
2018-02-24T14:41:19.672Z,4.53
2018-02-24T14:43:47.309Z,4.63
2018-02-24T14:46:14.900Z,5.27
2018-02-24T14:48:42.544Z,5.17
2018-02-24T14:51:10.158Z,4.60
2018-02-24T14:53:37.808Z,4.80
2018-02-24T14:56:05.426Z,4.57
2018-02-24T14:58:33.125Z,4.65
2018-02-24T15:01:00.845Z,4.18
2018-02-24T15:03:28.515Z,4.35
2018-02-24T15:05:56.176Z,4.55
2018-02-24T15:08:23.861Z,4.43
2018-02-24T15:10:51.544Z,4.15
2018-02-24T15:13:19.217Z,4.50
2018-02-24T15:15:46.879Z,4.03
2018-02-24T15:18:14.675Z,4.62
2018-02-24T15:20:42.364Z,4.95
2018-02-24T15:23:10.047Z,5.30
2018-02-24T15:25:37.822Z,5.40
2018-02-24T15:28:05.512Z,4.53
2018-02-24T15:30:33.216Z,4.20
2018-02-24T15:33:00.920Z,5.55
2018-02-24T15:35:28.647Z,5.30
2018-02-24T15:37:56.330Z,4.55
2018-02-24T15:40:24.012Z,4.05
2018-02-24T15:42:51.706Z,5.75
2018-02-24T15:45:19.409Z,4.60
2018-02-24T15:47:47.104Z,4.28
2018-02-24T15:50:14.777Z,4.35
2018-02-24T15:52:42.490Z,3.60
2018-02-24T15:55:10.163Z,4.32
2018-02-24T15:57:37.834Z,3.33
2018-02-24T16:00:05.520Z,3.65
2018-02-24T16:02:33.198Z,4.10
2018-02-24T16:05:00.883Z,3.83
2018-02-24T16:07:28.560Z,3.35
2018-02-24T16:09:56.651Z,2.78
2018-02-24T16:12:24.396Z,3.67
2018-02-24T16:14:52.067Z,3.45
2018-02-24T16:17:19.770Z,3.50
2018-02-24T16:19:47.438Z,4.40
2018-02-24T16:22:15.169Z,3.92
2018-02-24T16:24:43.212Z,3.80
2018-02-24T16:27:10.887Z,3.10
2018-02-24T16:29:38.580Z,3.45
2018-02-24T16:32:06.254Z,3.97
2018-02-24T16:34:33.942Z,3.55
2018-02-24T16:37:01.617Z,3.90
2018-02-24T16:39:29.471Z,3.55
2018-02-24T16:41:57.143Z,4.62
2018-02-24T16:44:24.804Z,4.50
2018-02-24T16:46:52.493Z,3.70
2018-02-24T16:49:20.156Z,3.53
2018-02-24T16:51:47.871Z,4.60
2018-02-24T16:54:15.541Z,4.47
2018-02-24T16:56:43.427Z,4.53
2018-02-24T16:59:11.113Z,4.25
2018-02-24T17:01:38.781Z,3.05
2018-02-24T17:04:06.512Z,3.47
2018-02-24T17:06:34.187Z,3.30
2018-02-24T17:09:01.892Z,3.90
2018-02-24T17:11:29.560Z,3.83
2018-02-24T17:13:57.465Z,3.53
2018-02-24T17:16:25.146Z,3.45
2018-02-24T17:18:52.972Z,2.80
2018-02-24T17:21:20.668Z,3.10
2018-02-24T17:23:48.328Z,3.65
2018-02-24T17:26:16.018Z,3.67
2018-02-24T17:28:43.689Z,3.90
2018-02-24T17:31:11.414Z,3.58
2018-02-24T17:33:39.101Z,3.12
2018-02-24T17:36:06.768Z,3.45
2018-02-24T17:38:34.453Z,4.68
2018-02-24T17:41:02.133Z,3.40
2018-02-24T17:43:29.830Z,3.20
2018-02-24T17:45:57.498Z,3.53
2018-02-24T17:48:25.204Z,4.45
2018-02-24T17:50:52.877Z,3.47
2018-02-24T17:53:20.768Z,3.70
2018-02-24T17:55:48.428Z,3.75
2018-02-24T17:58:16.084Z,2.80
2018-02-24T18:00:43.779Z,3.10
2018-02-24T18:03:11.453Z,3.37
2018-02-24T18:05:39.154Z,3.85
2018-02-24T18:08:06.825Z,3.60
2018-02-24T18:10:34.530Z,2.87
2018-02-24T18:13:02.209Z,3.62
2018-02-24T18:15:29.907Z,3.12
2018-02-24T18:17:57.584Z,3.20
2018-02-24T18:20:25.264Z,3.47
2018-02-24T18:22:52.975Z,3.95
2018-02-24T18:25:20.634Z,3.45
2018-02-24T18:27:48.337Z,3.83
2018-02-24T18:30:16.284Z,3.08
2018-02-24T18:32:43.982Z,4.20
2018-02-24T18:35:11.648Z,3.00
2018-02-24T18:37:39.344Z,3.00
2018-02-24T18:40:07.008Z,3.65
2018-02-24T18:42:34.668Z,3.08
2018-02-24T18:45:02.360Z,2.85
2018-02-24T18:47:30.026Z,3.45
2018-02-24T18:49:57.719Z,3.53
2018-02-24T18:52:25.387Z,3.37
2018-02-24T18:54:53.122Z,3.58
2018-02-24T18:57:20.797Z,3.85
2018-02-24T18:59:48.510Z,3.10
2018-02-24T19:02:16.188Z,3.15
2018-02-24T19:04:43.858Z,3.85
2018-02-24T19:07:11.552Z,3.20
2018-02-24T19:09:39.228Z,3.40
2018-02-24T19:12:06.924Z,3.08
2018-02-24T19:14:34.603Z,2.90
2018-02-24T19:17:02.534Z,2.67
2018-02-24T19:19:30.217Z,2.92
2018-02-24T19:21:57.946Z,3.25
2018-02-24T19:24:25.610Z,3.05
2018-02-24T19:26:53.296Z,3.40
2018-02-24T19:29:21.001Z,2.85
2018-02-24T19:31:48.748Z,2.60
2018-02-24T19:34:16.772Z,3.03
2018-02-24T19:36:44.454Z,3.55
2018-02-24T19:39:12.120Z,2.90
2018-02-24T19:41:39.821Z,3.83
2018-02-24T19:44:07.495Z,3.17
2018-02-24T19:46:35.197Z,3.15
2018-02-24T19:49:02.860Z,3.40
2018-02-24T19:51:30.716Z,2.90
2018-02-24T19:53:59.045Z,3.50
2018-02-24T19:56:26.714Z,3.20
2018-02-24T19:58:54.408Z,3.45
2018-02-24T20:01:22.108Z,2.87
2018-02-24T20:03:49.801Z,3.60
2018-02-24T20:06:17.484Z,2.87
2018-02-24T20:08:45.222Z,2.72
2018-02-24T20:11:12.895Z,3.47
2018-02-24T20:13:40.560Z,3.20
2018-02-24T20:16:08.257Z,3.00
2018-02-24T20:18:35.932Z,3.20
2018-02-24T20:21:03.671Z,3.45
2018-02-24T20:23:31.315Z,2.75
2018-02-24T20:25:59.114Z,2.47
2018-02-24T20:28:26.788Z,3.22
2018-02-24T20:30:54.468Z,2.95
2018-02-24T20:33:22.160Z,3.40
2018-02-24T20:35:49.851Z,2.80
2018-02-24T20:38:17.554Z,2.62
2018-02-24T20:40:45.223Z,3.53
2018-02-24T20:43:12.920Z,3.00
2018-02-24T20:45:40.610Z,3.20
2018-02-24T20:48:08.300Z,3.03
2018-02-24T20:50:35.992Z,2.58
2018-02-24T20:53:03.681Z,3.47
2018-02-24T20:55:31.364Z,2.40
2018-02-24T20:57:59.072Z,2.50
2018-02-24T21:00:26.739Z,2.72
2018-02-24T21:02:54.765Z,2.97
2018-02-24T21:05:22.443Z,3.25
2018-02-24T21:07:50.112Z,3.15
2018-02-24T21:10:17.792Z,3.75
2018-02-24T21:12:45.465Z,3.50
2018-02-24T21:15:13.195Z,3.70
2018-02-24T21:17:41.101Z,3.92
2018-02-24T21:20:09.124Z,2.50
2018-02-24T21:22:36.804Z,3.05
2018-02-24T21:25:04.469Z,4.15
2018-02-24T21:27:32.184Z,3.08
2018-02-24T21:29:59.859Z,3.78
2018-02-24T21:32:27.560Z,3.45
2018-02-24T21:34:55.309Z,3.65
2018-02-24T21:37:23.157Z,3.33
2018-02-24T21:39:50.838Z,3.60
2018-02-24T21:42:18.508Z,2.80
2018-02-24T21:44:46.192Z,3.67
2018-02-24T21:47:13.920Z,3.53
2018-02-24T21:49:41.806Z,3.10
2018-02-24T21:52:09.498Z,4.15
2018-02-24T21:54:37.632Z,4.18
2018-02-24T21:57:05.304Z,3.37
2018-02-24T21:59:32.999Z,3.75
2018-02-24T22:02:00.693Z,6.25
2018-02-24T22:04:28.366Z,4.15
2018-02-24T22:06:56.149Z,4.57
2018-02-24T22:09:23.864Z,3.70
2018-02-24T22:11:51.964Z,3.30
2018-02-24T22:14:19.640Z,3.92
2018-02-24T22:16:47.318Z,4.35
2018-02-24T22:19:15.030Z,2.85
2018-02-24T22:21:42.711Z,3.78
2018-02-24T22:24:10.545Z,5.20
2018-02-24T22:26:38.317Z,4.72
2018-02-24T22:29:06.027Z,6.57
2018-02-24T22:31:33.730Z,5.12
2018-02-24T22:34:01.401Z,4.18
2018-02-24T22:36:29.088Z,3.28
2018-02-24T22:38:56.755Z,6.15
2018-02-24T22:41:24.637Z,4.50
2018-02-24T22:43:52.305Z,5.32
2018-02-24T22:46:19.980Z,7.68
2018-02-24T22:48:53.118Z,10.80
2018-02-24T22:51:21.002Z,5.62
2018-02-24T22:53:48.691Z,3.72
2018-02-24T22:56:16.366Z,4.28
2018-02-24T22:58:44.208Z,3.97
2018-02-24T23:01:11.889Z,4.10
2018-02-24T23:03:39.862Z,5.20
2018-02-24T23:06:07.538Z,5.00
2018-02-24T23:08:35.344Z,5.47
2018-02-24T23:11:03.048Z,4.40
2018-02-24T23:13:30.728Z,5.47
2018-02-24T23:15:58.435Z,4.75
2018-02-24T23:18:26.100Z,7.18
2018-02-24T23:20:53.984Z,7.32
2018-02-24T23:23:21.656Z,4.57
2018-02-24T23:25:49.327Z,4.25
2018-02-24T23:28:17.037Z,5.47
2018-02-24T23:30:44.897Z,7.70
2018-02-24T23:33:12.592Z,8.18
2018-02-24T23:35:40.278Z,6.93
2018-02-24T23:38:08.147Z,10.60
2018-02-24T23:40:35.855Z,14.32
2018-02-24T23:43:03.576Z,6.50
2018-02-24T23:45:31.277Z,6.57
2018-02-24T23:47:58.986Z,9.85
2018-02-24T23:50:26.689Z,6.35
2018-02-24T23:52:54.549Z,6.62
2018-02-24T23:55:22.236Z,4.82
2018-02-24T23:57:49.936Z,6.22
